createdAt,value
2023-03-22T00:00:15.440Z,10.26
2023-03-22T00:02:41.849Z,10.25
2023-03-22T00:05:08.812Z,10.26
2023-03-22T00:07:35.170Z,10.28
2023-03-22T00:10:02.130Z,10.31
2023-03-22T00:12:28.490Z,10.30
2023-03-22T00:14:55.083Z,10.35
2023-03-22T00:17:22.958Z,10.36
2023-03-22T00:19:49.400Z,10.39
2023-03-22T00:22:16.121Z,10.41
2023-03-22T00:24:42.469Z,10.44
2023-03-22T00:27:08.854Z,10.43
2023-03-22T00:29:35.371Z,10.39
2023-03-22T00:32:01.833Z,10.43
2023-03-22T00:34:32.042Z,10.49
2023-03-22T00:36:59.694Z,10.50
2023-03-22T00:39:26.901Z,10.52
2023-03-22T00:41:53.322Z,10.49
2023-03-22T00:44:19.748Z,10.47
2023-03-22T00:46:46.209Z,10.48
2023-03-22T00:49:13.974Z,10.54
2023-03-22T00:51:40.343Z,10.57
2023-03-22T00:54:06.957Z,10.58
2023-03-22T00:56:33.891Z,10.60
2023-03-22T00:59:07.799Z,10.63
2023-03-22T01:01:34.247Z,10.65
2023-03-22T01:04:03.016Z,10.64
2023-03-22T01:06:30.530Z,10.63
2023-03-22T01:08:57.219Z,10.66
2023-03-22T01:11:24.083Z,10.71
2023-03-22T01:13:50.859Z,10.73
2023-03-22T01:16:17.706Z,10.75
2023-03-22T01:18:44.701Z,10.77
2023-03-22T01:21:11.203Z,10.77
2023-03-22T01:23:38.054Z,10.78
2023-03-22T01:26:05.324Z,10.79
2023-03-22T01:28:31.718Z,10.80
2023-03-22T01:31:02.361Z,10.82
2023-03-22T01:33:28.929Z,10.84
2023-03-22T01:35:55.454Z,10.84
2023-03-22T01:38:22.196Z,10.83
2023-03-22T01:40:53.715Z,10.84
2023-03-22T01:43:20.764Z,10.80
2023-03-22T01:45:49.895Z,10.78
2023-03-22T01:48:26.259Z,10.79
2023-03-22T01:51:03.178Z,10.78
2023-03-22T01:53:38.651Z,10.78
2023-03-22T01:56:07.519Z,10.74
2023-03-22T01:58:36.837Z,10.73
2023-03-22T02:01:07.615Z,10.75
2023-03-22T02:04:02.668Z,10.74
2023-03-22T02:06:38.090Z,10.74
2023-03-22T02:09:12.346Z,10.75
2023-03-22T02:11:42.987Z,10.76
2023-03-22T02:15:03.762Z,10.74
2023-03-22T02:18:11.353Z,10.73
2023-03-22T02:21:17.715Z,10.67
2023-03-22T02:24:13.577Z,10.69
2023-03-22T02:27:10.447Z,10.64
2023-03-22T02:29:56.767Z,10.57
2023-03-22T02:32:47.701Z,10.60
2023-03-22T02:35:33.564Z,10.65
2023-03-22T02:38:27.184Z,10.66
2023-03-22T02:41:08.833Z,10.65
2023-03-22T02:44:02.104Z,10.67
2023-03-22T02:46:46.474Z,10.64
2023-03-22T02:49:26.966Z,10.59
2023-03-22T02:52:17.499Z,10.57
2023-03-22T02:55:07.612Z,10.59
2023-03-22T02:57:47.961Z,10.56
2023-03-22T03:00:18.357Z,10.53
2023-03-22T03:03:00.093Z,10.58
2023-03-22T03:05:30.814Z,10.58
2023-03-22T03:08:01.295Z,10.53
2023-03-22T03:10:29.098Z,10.50
2023-03-22T03:12:55.475Z,10.48
2023-03-22T03:15:23.559Z,10.48
2023-03-22T03:18:11.440Z,10.47
2023-03-22T03:21:00.495Z,10.48
2023-03-22T03:24:09.410Z,10.50
2023-03-22T03:26:44.848Z,10.47
2023-03-22T03:29:30.901Z,10.45
2023-03-22T03:32:21.297Z,10.45
2023-03-22T03:34:54.922Z,10.47
2023-03-22T03:37:33.869Z,10.47
2023-03-22T03:40:08.358Z,10.51
2023-03-22T03:42:42.223Z,10.47
2023-03-22T03:45:09.652Z,10.46
2023-03-22T03:47:38.763Z,10.46
2023-03-22T03:50:06.350Z,10.43
2023-03-22T03:52:33.002Z,10.47
2023-03-22T03:54:59.805Z,10.49
2023-03-22T03:57:31.264Z,10.51
2023-03-22T03:59:57.790Z,10.51
2023-03-22T04:02:41.283Z,10.56
2023-03-22T04:05:14.890Z,10.57
2023-03-22T04:07:41.699Z,10.60
2023-03-22T04:10:08.787Z,10.63
2023-03-22T04:12:35.646Z,10.66
2023-03-22T04:15:12.517Z,10.69
2023-03-22T04:17:40.573Z,10.72
2023-03-22T04:20:10.803Z,10.73
2023-03-22T04:22:38.546Z,10.74
2023-03-22T04:25:06.509Z,10.74
2023-03-22T04:27:33.020Z,10.77
2023-03-22T04:30:02.672Z,10.77
2023-03-22T04:32:51.827Z,10.78
2023-03-22T04:35:24.009Z,10.76
2023-03-22T04:37:53.661Z,10.76
2023-03-22T04:40:21.539Z,10.77
2023-03-22T04:42:58.868Z,10.78
2023-03-22T04:45:36.193Z,10.77
2023-03-22T04:48:07.686Z,10.76
2023-03-22T04:50:34.798Z,10.75
2023-03-22T04:53:03.708Z,10.75
2023-03-22T04:55:31.625Z,10.76
2023-03-22T04:57:58.273Z,10.77
2023-03-22T05:00:24.725Z,10.77
2023-03-22T05:02:52.007Z,10.78
2023-03-22T05:05:27.573Z,10.80
2023-03-22T05:07:54.454Z,10.81
2023-03-22T05:10:21.039Z,10.81
2023-03-22T05:12:47.819Z,10.79
2023-03-22T05:15:23.410Z,10.79
2023-03-22T05:17:51.307Z,10.80
2023-03-22T05:20:17.704Z,10.82
2023-03-22T05:22:50.394Z,10.80
2023-03-22T05:25:18.410Z,10.83
2023-03-22T05:27:45.834Z,10.83
2023-03-22T05:30:31.128Z,10.82
2023-03-22T05:33:04.711Z,10.83
2023-03-22T05:35:39.143Z,10.85
2023-03-22T05:38:08.081Z,10.86
2023-03-22T05:40:36.742Z,10.90
2023-03-22T05:43:03.191Z,10.94
2023-03-22T05:45:31.628Z,10.94
2023-03-22T05:48:33.165Z,10.94
2023-03-22T05:50:59.820Z,10.93
2023-03-22T05:53:31.751Z,10.94
2023-03-22T05:56:09.796Z,10.95
2023-03-22T05:58:37.017Z,10.98
2023-03-22T06:01:10.983Z,11.00
2023-03-22T06:03:48.327Z,11.03
2023-03-22T06:06:23.814Z,11.05
2023-03-22T06:09:15.994Z,11.03
2023-03-22T06:11:43.571Z,11.06
2023-03-22T06:14:10.469Z,11.08
2023-03-22T06:16:51.966Z,11.13
2023-03-22T06:19:18.698Z,11.18
2023-03-22T06:21:45.257Z,11.22
2023-03-22T06:24:14.302Z,11.24
2023-03-22T06:26:40.793Z,11.32
2023-03-22T06:29:07.267Z,11.43
2023-03-22T06:31:33.745Z,11.52
2023-03-22T06:34:05.961Z,11.56
2023-03-22T06:36:37.445Z,11.57
2023-03-22T06:39:17.525Z,11.64
2023-03-22T06:41:45.527Z,11.70
2023-03-22T06:44:12.449Z,11.70
2023-03-22T06:46:51.030Z,11.70
2023-03-22T06:49:36.006Z,11.70
2023-03-22T06:52:03.533Z,11.69
2023-03-22T06:54:30.450Z,11.71
2023-03-22T06:56:56.910Z,11.73
2023-03-22T06:59:23.342Z,11.68
2023-03-22T07:01:49.873Z,11.63
2023-03-22T07:04:16.462Z,11.62
2023-03-22T07:06:44.910Z,11.63
2023-03-22T07:09:11.466Z,11.62
2023-03-22T07:11:38.189Z,11.64
2023-03-22T07:14:04.693Z,11.67
2023-03-22T07:16:48.883Z,11.67
2023-03-22T07:19:18.394Z,11.66
2023-03-22T07:21:44.796Z,11.67
2023-03-22T07:24:13.513Z,11.76
2023-03-22T07:26:41.091Z,11.80
2023-03-22T07:29:13.316Z,11.76
2023-03-22T07:31:40.119Z,11.75
2023-03-22T07:34:28.868Z,11.74
2023-03-22T07:37:04.612Z,11.75
2023-03-22T07:39:31.633Z,11.76
2023-03-22T07:42:06.694Z,11.75
2023-03-22T07:44:42.710Z,11.79
2023-03-22T07:47:39.523Z,11.81
2023-03-22T07:50:38.432Z,11.87
2023-03-22T07:53:05.877Z,11.96
2023-03-22T07:55:32.275Z,12.00
2023-03-22T07:57:58.629Z,12.06
2023-03-22T08:00:25.128Z,12.07
2023-03-22T08:03:14.535Z,12.11
2023-03-22T08:06:02.574Z,12.04
2023-03-22T08:08:28.972Z,12.00
2023-03-22T08:10:55.693Z,11.96
2023-03-22T08:13:22.167Z,12.02
2023-03-22T08:15:48.590Z,12.07
2023-03-22T08:18:17.299Z,12.16
2023-03-22T08:20:45.614Z,12.23
2023-03-22T08:23:17.526Z,12.22
2023-03-22T08:26:06.648Z,12.22
2023-03-22T08:28:33.200Z,12.29
2023-03-22T08:30:59.576Z,12.36
2023-03-22T08:33:26.359Z,12.39
2023-03-22T08:35:52.893Z,12.36
2023-03-22T08:38:19.579Z,12.36
2023-03-22T08:40:51.651Z,12.33
2023-03-22T08:43:21.999Z,12.33
2023-03-22T08:45:48.622Z,12.33
2023-03-22T08:48:16.740Z,12.37
2023-03-22T08:50:58.401Z,12.55
2023-03-22T08:53:34.725Z,12.90
2023-03-22T08:56:22.556Z,13.22
2023-03-22T08:59:00.669Z,13.34
2023-03-22T09:01:37.152Z,13.36
2023-03-22T09:04:05.761Z,13.32
2023-03-22T09:06:32.439Z,13.32
2023-03-22T09:08:58.875Z,13.34
2023-03-22T09:11:25.700Z,13.46
2023-03-22T09:13:52.379Z,13.64
2023-03-22T09:16:19.870Z,13.73
2023-03-22T09:18:47.128Z,13.98
2023-03-22T09:21:21.816Z,14.15
2023-03-22T09:24:11.215Z,14.16
2023-03-22T09:26:44.333Z,14.26
2023-03-22T09:29:10.827Z,14.32
2023-03-22T09:31:39.711Z,14.39
2023-03-22T09:34:16.177Z,14.35
2023-03-22T09:36:42.683Z,14.21
2023-03-22T09:39:10.177Z,14.09
2023-03-22T09:41:46.124Z,14.10
2023-03-22T09:44:19.782Z,14.06
2023-03-22T09:46:52.011Z,14.03
2023-03-22T09:49:22.986Z,13.93
2023-03-22T09:51:51.551Z,13.93
2023-03-22T09:54:32.148Z,13.83
2023-03-22T09:57:33.980Z,13.84
2023-03-22T10:00:12.424Z,13.87
2023-03-22T10:02:57.834Z,13.93
2023-03-22T10:05:32.048Z,14.11
2023-03-22T10:08:25.291Z,14.27
2023-03-22T10:10:52.658Z,14.34
2023-03-22T10:13:45.414Z,14.40
2023-03-22T10:16:19.860Z,14.42
2023-03-22T10:18:51.151Z,14.43
2023-03-22T10:21:19.227Z,14.49
2023-03-22T10:23:51.304Z,14.42
2023-03-22T10:26:31.149Z,14.40
2023-03-22T10:29:21.898Z,14.32
2023-03-22T10:31:48.371Z,14.22
2023-03-22T10:34:24.650Z,14.16
2023-03-22T10:36:52.650Z,14.14
2023-03-22T10:39:28.176Z,14.10
2023-03-22T10:42:02.176Z,14.11
2023-03-22T10:44:30.781Z,14.15
2023-03-22T10:47:02.280Z,14.22
2023-03-22T10:49:33.433Z,14.19
2023-03-22T10:52:09.078Z,14.17
2023-03-22T10:54:36.632Z,14.14
2023-03-22T10:57:03.424Z,14.20
2023-03-22T10:59:51.069Z,14.39
2023-03-22T11:02:29.424Z,14.67
2023-03-22T11:05:05.773Z,14.56
2023-03-22T11:07:43.689Z,14.83
2023-03-22T11:10:10.045Z,14.94
2023-03-22T11:12:40.755Z,14.86
2023-03-22T11:15:19.037Z,14.88
2023-03-22T11:17:45.466Z,14.96
2023-03-22T11:20:19.124Z,14.98
2023-03-22T11:22:47.934Z,15.10
2023-03-22T11:25:26.672Z,15.22
2023-03-22T11:28:05.775Z,15.17
2023-03-22T11:30:33.424Z,15.00
2023-03-22T11:33:09.296Z,14.94
2023-03-22T11:35:38.284Z,14.92
2023-03-22T11:38:05.243Z,14.89
2023-03-22T11:40:34.838Z,14.84
2023-03-22T11:43:19.330Z,14.72
2023-03-22T11:45:50.364Z,14.64
2023-03-22T11:48:23.397Z,14.58
2023-03-22T11:50:53.501Z,14.59
2023-03-22T11:53:24.427Z,14.70
2023-03-22T11:55:54.494Z,14.75
2023-03-22T11:58:28.248Z,14.82
2023-03-22T12:01:02.150Z,14.90
2023-03-22T12:03:38.942Z,14.96
2023-03-22T12:06:24.212Z,14.77
2023-03-22T12:09:00.281Z,14.64
2023-03-22T12:11:36.043Z,14.55
2023-03-22T12:14:27.976Z,14.58
2023-03-22T12:17:02.290Z,14.64
2023-03-22T12:19:51.842Z,14.57
2023-03-22T12:22:22.845Z,14.59
2023-03-22T12:24:49.218Z,14.54
2023-03-22T12:27:20.679Z,14.57
2023-03-22T12:29:56.526Z,14.56
2023-03-22T12:32:30.747Z,14.56
2023-03-22T12:35:09.209Z,14.61
2023-03-22T12:37:42.701Z,14.60
2023-03-22T12:40:28.462Z,14.49
2023-03-22T12:43:06.106Z,14.53
2023-03-22T12:45:40.470Z,14.50
2023-03-22T12:48:16.029Z,14.52
2023-03-22T12:50:51.234Z,14.58
2023-03-22T12:53:19.892Z,14.54
2023-03-22T12:55:48.154Z,14.43
2023-03-22T12:58:25.877Z,14.44
2023-03-22T13:00:57.941Z,14.21
2023-03-22T13:03:36.570Z,13.77
2023-03-22T13:06:41.442Z,13.21
2023-03-22T13:09:17.542Z,12.69
2023-03-22T13:11:46.960Z,12.38
2023-03-22T13:14:57.478Z,12.18
2023-03-22T13:17:27.973Z,11.89
2023-03-22T13:20:21.375Z,11.68
2023-03-22T13:22:47.701Z,11.66
2023-03-22T13:25:18.697Z,11.68
2023-03-22T13:27:45.055Z,11.76
2023-03-22T13:30:19.482Z,11.73
2023-03-22T13:33:08.664Z,11.78
2023-03-22T13:35:50.931Z,11.62
2023-03-22T13:38:25.220Z,11.56
2023-03-22T13:40:59.301Z,11.70
2023-03-22T13:43:34.508Z,11.79
2023-03-22T13:46:26.539Z,11.92
2023-03-22T13:49:02.510Z,12.07
2023-03-22T13:51:32.150Z,12.17
2023-03-22T13:54:18.535Z,12.23
2023-03-22T13:57:00.712Z,12.31
2023-03-22T13:59:27.698Z,12.32
2023-03-22T14:01:59.345Z,12.36
2023-03-22T14:04:30.028Z,12.44
2023-03-22T14:06:59.933Z,12.51
2023-03-22T14:09:56.797Z,12.62
2023-03-22T14:12:45.084Z,12.72
2023-03-22T14:15:17.212Z,12.77
2023-03-22T14:17:53.707Z,12.84
2023-03-22T14:20:24.694Z,12.89
